sensor_id;sensor_type;location;lat;lon;timestamp;P1;durP1;ratioP1;P2;durP2;ratioP2
56718;SDS011;42597;40.636;0.278;2022-10-16T00:00:38;8.57;;;6.72;;
56718;SDS011;42597;40.636;0.278;2022-10-16T00:03:05;12.05;;;8.35;;
56718;SDS011;42597;40.636;0.278;2022-10-16T00:05:31;9.88;;;7.18;;
56718;SDS011;42597;40.636;0.278;2022-10-16T00:07:57;14.95;;;7.80;;
56718;SDS011;42597;40.636;0.278;2022-10-16T00:10:22;12.65;;;7.50;;
56718;SDS011;42597;40.636;0.278;2022-10-16T00:12:48;8.73;;;7.18;;
56718;SDS011;42597;40.636;0.278;2022-10-16T00:15:14;10.25;;;7.82;;
56718;SDS011;42597;40.636;0.278;2022-10-16T00:17:40;12.40;;;8.20;;
56718;SDS011;42597;40.636;0.278;2022-10-16T00:20:05;10.32;;;7.75;;
56718;SDS011;42597;40.636;0.278;2022-10-16T00:22:32;7.82;;;6.20;;
56718;SDS011;42597;40.636;0.278;2022-10-16T00:24:58;14.13;;;9.18;;
56718;SDS011;42597;40.636;0.278;2022-10-16T00:27:23;13.27;;;9.68;;
56718;SDS011;42597;40.636;0.278;2022-10-16T00:29:49;11.80;;;8.35;;
56718;SDS011;42597;40.636;0.278;2022-10-16T00:32:16;11.25;;;9.02;;
56718;SDS011;42597;40.636;0.278;2022-10-16T00:34:42;13.70;;;9.27;;
56718;SDS011;42597;40.636;0.278;2022-10-16T00:37:08;11.82;;;8.77;;
56718;SDS011;42597;40.636;0.278;2022-10-16T00:39:34;11.45;;;8.60;;
56718;SDS011;42597;40.636;0.278;2022-10-16T00:41:59;11.55;;;8.32;;
56718;SDS011;42597;40.636;0.278;2022-10-16T00:49:59;10.52;;;6.28;;
56718;SDS011;42597;40.636;0.278;2022-10-16T00:52:30;7.95;;;6.80;;
56718;SDS011;42597;40.636;0.278;2022-10-16T00:54:56;10.07;;;6.20;;
56718;SDS011;42597;40.636;0.278;2022-10-16T00:57:23;9.25;;;6.32;;
56718;SDS011;42597;40.636;0.278;2022-10-16T00:59:49;11.50;;;7.55;;
56718;SDS011;42597;40.636;0.278;2022-10-16T01:02:15;8.55;;;7.05;;
56718;SDS011;42597;40.636;0.278;2022-10-16T01:04:42;10.77;;;6.18;;
56718;SDS011;42597;40.636;0.278;2022-10-16T01:09:56;9.13;;;5.82;;
56718;SDS011;42597;40.636;0.278;2022-10-16T01:15:30;8.88;;;5.88;;
56718;SDS011;42597;40.636;0.278;2022-10-16T01:18:18;9.80;;;5.05;;
56718;SDS011;42597;40.636;0.278;2022-10-16T01:20:58;9.52;;;5.40;;
56718;SDS011;42597;40.636;0.278;2022-10-16T01:28:57;11.50;;;5.97;;
56718;SDS011;42597;40.636;0.278;2022-10-16T01:31:27;6.18;;;5.10;;
56718;SDS011;42597;40.636;0.278;2022-10-16T01:33:59;10.05;;;5.30;;
56718;SDS011;42597;40.636;0.278;2022-10-16T01:36:26;9.85;;;4.25;;
56718;SDS011;42597;40.636;0.278;2022-10-16T01:39:00;10.73;;;6.20;;
56718;SDS011;42597;40.636;0.278;2022-10-16T01:41:30;9.57;;;6.18;;
56718;SDS011;42597;40.636;0.278;2022-10-16T01:46:57;12.93;;;7.00;;
56718;SDS011;42597;40.636;0.278;2022-10-16T01:49:25;8.07;;;6.25;;
56718;SDS011;42597;40.636;0.278;2022-10-16T01:51:55;13.15;;;7.45;;
56718;SDS011;42597;40.636;0.278;2022-10-16T01:54:25;10.98;;;7.43;;
56718;SDS011;42597;40.636;0.278;2022-10-16T01:56:54;10.30;;;7.18;;
56718;SDS011;42597;40.636;0.278;2022-10-16T01:59:22;12.32;;;6.55;;
56718;SDS011;42597;40.636;0.278;2022-10-16T02:01:54;12.65;;;7.70;;
56718;SDS011;42597;40.636;0.278;2022-10-16T02:04:32;13.27;;;9.00;;
56718;SDS011;42597;40.636;0.278;2022-10-16T02:07:21;10.48;;;7.55;;
56718;SDS011;42597;40.636;0.278;2022-10-16T02:09:47;9.52;;;6.63;;
56718;SDS011;42597;40.636;0.278;2022-10-16T02:12:19;10.80;;;7.40;;
56718;SDS011;42597;40.636;0.278;2022-10-16T02:14:50;6.53;;;4.72;;
56718;SDS011;42597;40.636;0.278;2022-10-16T02:17:16;12.90;;;7.95;;
56718;SDS011;42597;40.636;0.278;2022-10-16T02:19:43;9.35;;;7.53;;
56718;SDS011;42597;40.636;0.278;2022-10-16T02:22:34;11.63;;;7.43;;
56718;SDS011;42597;40.636;0.278;2022-10-16T02:25:08;11.50;;;7.82;;
56718;SDS011;42597;40.636;0.278;2022-10-16T02:28:17;9.38;;;6.97;;
56718;SDS011;42597;40.636;0.278;2022-10-16T02:30:50;10.10;;;6.40;;
56718;SDS011;42597;40.636;0.278;2022-10-16T02:33:23;9.57;;;5.22;;
56718;SDS011;42597;40.636;0.278;2022-10-16T02:35:51;12.07;;;5.97;;
56718;SDS011;42597;40.636;0.278;2022-10-16T02:38:18;9.18;;;6.15;;
56718;SDS011;42597;40.636;0.278;2022-10-16T02:40:46;8.32;;;5.68;;
56718;SDS011;42597;40.636;0.278;2022-10-16T02:43:12;11.25;;;5.82;;
56718;SDS011;42597;40.636;0.278;2022-10-16T02:45:38;10.68;;;6.15;;
56718;SDS011;42597;40.636;0.278;2022-10-16T02:48:04;9.73;;;5.90;;
56718;SDS011;42597;40.636;0.278;2022-10-16T02:50:30;11.65;;;6.50;;
56718;SDS011;42597;40.636;0.278;2022-10-16T02:52:56;11.45;;;6.43;;
56718;SDS011;42597;40.636;0.278;2022-10-16T02:55:21;13.38;;;6.25;;
56718;SDS011;42597;40.636;0.278;2022-10-16T02:57:47;8.02;;;5.20;;
56718;SDS011;42597;40.636;0.278;2022-10-16T03:00:14;10.57;;;6.15;;
56718;SDS011;42597;40.636;0.278;2022-10-16T03:02:41;7.40;;;5.38;;
56718;SDS011;42597;40.636;0.278;2022-10-16T03:05:07;8.90;;;5.80;;
56718;SDS011;42597;40.636;0.278;2022-10-16T03:07:34;8.75;;;5.70;;
56718;SDS011;42597;40.636;0.278;2022-10-16T03:09:59;10.90;;;5.80;;
56718;SDS011;42597;40.636;0.278;2022-10-16T03:12:28;10.52;;;5.82;;
56718;SDS011;42597;40.636;0.278;2022-10-16T03:14:54;8.75;;;4.72;;
56718;SDS011;42597;40.636;0.278;2022-10-16T03:17:21;12.48;;;6.13;;
56718;SDS011;42597;40.636;0.278;2022-10-16T03:19:47;11.55;;;4.75;;
56718;SDS011;42597;40.636;0.278;2022-10-16T03:22:13;10.48;;;5.97;;
56718;SDS011;42597;40.636;0.278;2022-10-16T03:24:38;9.15;;;4.82;;
56718;SDS011;42597;40.636;0.278;2022-10-16T03:27:04;8.82;;;4.85;;
56718;SDS011;42597;40.636;0.278;2022-10-16T03:29:29;9.43;;;4.78;;
56718;SDS011;42597;40.636;0.278;2022-10-16T03:31:55;15.52;;;5.35;;
56718;SDS011;42597;40.636;0.278;2022-10-16T03:34:21;10.35;;;5.13;;
56718;SDS011;42597;40.636;0.278;2022-10-16T03:36:47;12.07;;;6.18;;
56718;SDS011;42597;40.636;0.278;2022-10-16T03:39:13;10.77;;;5.18;;
56718;SDS011;42597;40.636;0.278;2022-10-16T03:41:38;8.52;;;5.47;;
56718;SDS011;42597;40.636;0.278;2022-10-16T03:44:04;9.20;;;6.53;;
56718;SDS011;42597;40.636;0.278;2022-10-16T03:46:30;15.60;;;6.00;;
56718;SDS011;42597;40.636;0.278;2022-10-16T03:48:56;12.13;;;5.75;;
56718;SDS011;42597;40.636;0.278;2022-10-16T03:51:22;7.30;;;3.92;;
56718;SDS011;42597;40.636;0.278;2022-10-16T03:53:47;10.88;;;4.80;;
56718;SDS011;42597;40.636;0.278;2022-10-16T03:56:13;8.27;;;4.38;;
56718;SDS011;42597;40.636;0.278;2022-10-16T03:58:38;14.18;;;5.53;;
56718;SDS011;42597;40.636;0.278;2022-10-16T04:01:04;9.00;;;5.28;;
56718;SDS011;42597;40.636;0.278;2022-10-16T04:03:30;6.70;;;3.95;;
56718;SDS011;42597;40.636;0.278;2022-10-16T04:05:55;6.50;;;4.55;;
56718;SDS011;42597;40.636;0.278;2022-10-16T04:08:21;10.88;;;4.60;;
56718;SDS011;42597;40.636;0.278;2022-10-16T04:10:47;15.07;;;6.05;;
56718;SDS011;42597;40.636;0.278;2022-10-16T04:13:13;11.07;;;5.20;;
56718;SDS011;42597;40.636;0.278;2022-10-16T04:15:38;9.15;;;5.28;;
56718;SDS011;42597;40.636;0.278;2022-10-16T04:18:04;8.25;;;4.45;;
56718;SDS011;42597;40.636;0.278;2022-10-16T04:20:31;10.30;;;4.65;;
56718;SDS011;42597;40.636;0.278;2022-10-16T04:22:57;9.75;;;4.90;;
56718;SDS011;42597;40.636;0.278;2022-10-16T04:25:22;9.77;;;5.07;;
56718;SDS011;42597;40.636;0.278;2022-10-16T04:27:48;7.82;;;4.07;;
56718;SDS011;42597;40.636;0.278;2022-10-16T04:30:14;6.88;;;3.72;;
56718;SDS011;42597;40.636;0.278;2022-10-16T04:32:40;9.10;;;4.43;;
56718;SDS011;42597;40.636;0.278;2022-10-16T04:35:06;7.55;;;4.35;;
56718;SDS011;42597;40.636;0.278;2022-10-16T04:37:32;8.10;;;5.18;;
56718;SDS011;42597;40.636;0.278;2022-10-16T04:39:57;7.93;;;4.03;;
56718;SDS011;42597;40.636;0.278;2022-10-16T04:42:23;8.50;;;3.92;;
56718;SDS011;42597;40.636;0.278;2022-10-16T04:44:49;9.85;;;4.70;;
56718;SDS011;42597;40.636;0.278;2022-10-16T04:47:14;8.57;;;5.20;;
56718;SDS011;42597;40.636;0.278;2022-10-16T04:49:40;9.15;;;4.10;;
56718;SDS011;42597;40.636;0.278;2022-10-16T04:52:06;10.02;;;4.43;;
56718;SDS011;42597;40.636;0.278;2022-10-16T04:54:33;11.27;;;4.28;;
56718;SDS011;42597;40.636;0.278;2022-10-16T04:56:59;5.18;;;3.25;;
56718;SDS011;42597;40.636;0.278;2022-10-16T04:59:25;7.95;;;3.92;;
56718;SDS011;42597;40.636;0.278;2022-10-16T05:01:50;6.80;;;3.75;;
56718;SDS011;42597;40.636;0.278;2022-10-16T05:04:16;8.15;;;4.10;;
56718;SDS011;42597;40.636;0.278;2022-10-16T05:06:42;8.63;;;4.22;;
56718;SDS011;42597;40.636;0.278;2022-10-16T05:09:08;9.93;;;3.28;;
56718;SDS011;42597;40.636;0.278;2022-10-16T05:11:34;13.25;;;4.25;;
56718;SDS011;42597;40.636;0.278;2022-10-16T05:14:00;10.63;;;4.95;;
56718;SDS011;42597;40.636;0.278;2022-10-16T05:16:26;9.30;;;4.03;;
56718;SDS011;42597;40.636;0.278;2022-10-16T05:18:52;7.97;;;4.35;;
56718;SDS011;42597;40.636;0.278;2022-10-16T05:21:17;7.88;;;4.03;;
56718;SDS011;42597;40.636;0.278;2022-10-16T05:23:43;6.72;;;3.92;;
56718;SDS011;42597;40.636;0.278;2022-10-16T05:26:09;9.45;;;3.78;;
56718;SDS011;42597;40.636;0.278;2022-10-16T05:28:34;13.40;;;4.05;;
56718;SDS011;42597;40.636;0.278;2022-10-16T05:31:04;10.10;;;4.70;;
56718;SDS011;42597;40.636;0.278;2022-10-16T05:33:31;7.32;;;3.83;;
56718;SDS011;42597;40.636;0.278;2022-10-16T05:36:04;8.13;;;3.45;;
56718;SDS011;42597;40.636;0.278;2022-10-16T05:38:32;7.28;;;3.53;;
56718;SDS011;42597;40.636;0.278;2022-10-16T05:40:58;9.23;;;3.80;;
56718;SDS011;42597;40.636;0.278;2022-10-16T05:43:24;8.32;;;3.97;;
56718;SDS011;42597;40.636;0.278;2022-10-16T05:48:29;7.93;;;4.90;;
56718;SDS011;42597;40.636;0.278;2022-10-16T05:53:26;8.55;;;3.88;;
56718;SDS011;42597;40.636;0.278;2022-10-16T05:55:53;8.50;;;4.10;;
56718;SDS011;42597;40.636;0.278;2022-10-16T05:58:19;10.05;;;4.15;;
56718;SDS011;42597;40.636;0.278;2022-10-16T06:00:52;14.57;;;3.78;;
56718;SDS011;42597;40.636;0.278;2022-10-16T06:03:22;13.15;;;4.57;;
56718;SDS011;42597;40.636;0.278;2022-10-16T06:05:48;16.50;;;4.55;;
56718;SDS011;42597;40.636;0.278;2022-10-16T06:08:14;11.13;;;3.67;;
56718;SDS011;42597;40.636;0.278;2022-10-16T06:10:39;8.32;;;3.60;;
56718;SDS011;42597;40.636;0.278;2022-10-16T06:13:05;14.13;;;4.18;;
56718;SDS011;42597;40.636;0.278;2022-10-16T06:15:31;7.90;;;3.75;;
56718;SDS011;42597;40.636;0.278;2022-10-16T06:17:56;6.57;;;3.72;;
56718;SDS011;42597;40.636;0.278;2022-10-16T06:20:22;8.73;;;4.07;;
56718;SDS011;42597;40.636;0.278;2022-10-16T06:22:47;10.00;;;3.70;;
56718;SDS011;42597;40.636;0.278;2022-10-16T06:25:13;9.85;;;4.00;;
56718;SDS011;42597;40.636;0.278;2022-10-16T06:27:39;7.90;;;4.32;;
56718;SDS011;42597;40.636;0.278;2022-10-16T06:30:06;14.68;;;4.28;;
56718;SDS011;42597;40.636;0.278;2022-10-16T06:32:32;17.00;;;4.63;;
56718;SDS011;42597;40.636;0.278;2022-10-16T06:34:58;8.00;;;3.75;;
56718;SDS011;42597;40.636;0.278;2022-10-16T06:37:23;8.60;;;3.42;;
56718;SDS011;42597;40.636;0.278;2022-10-16T06:39:50;5.95;;;3.25;;
56718;SDS011;42597;40.636;0.278;2022-10-16T06:42:17;10.85;;;4.38;;
56718;SDS011;42597;40.636;0.278;2022-10-16T06:44:43;6.07;;;3.25;;
56718;SDS011;42597;40.636;0.278;2022-10-16T06:47:09;13.52;;;3.88;;
56718;SDS011;42597;40.636;0.278;2022-10-16T06:49:35;7.45;;;3.10;;
56718;SDS011;42597;40.636;0.278;2022-10-16T06:52:00;7.38;;;3.75;;
56718;SDS011;42597;40.636;0.278;2022-10-16T06:54:27;6.30;;;2.95;;
56718;SDS011;42597;40.636;0.278;2022-10-16T06:56:52;8.45;;;3.53;;
56718;SDS011;42597;40.636;0.278;2022-10-16T06:59:21;11.63;;;3.20;;
56718;SDS011;42597;40.636;0.278;2022-10-16T07:01:47;7.65;;;3.13;;
56718;SDS011;42597;40.636;0.278;2022-10-16T07:04:13;6.72;;;4.07;;
56718;SDS011;42597;40.636;0.278;2022-10-16T07:06:39;12.70;;;4.13;;
56718;SDS011;42597;40.636;0.278;2022-10-16T07:09:06;7.45;;;3.67;;
56718;SDS011;42597;40.636;0.278;2022-10-16T07:11:35;10.73;;;3.58;;
56718;SDS011;42597;40.636;0.278;2022-10-16T07:14:02;4.65;;;2.65;;
56718;SDS011;42597;40.636;0.278;2022-10-16T07:16:30;10.18;;;3.95;;
56718;SDS011;42597;40.636;0.278;2022-10-16T07:18:57;9.45;;;3.80;;
56718;SDS011;42597;40.636;0.278;2022-10-16T07:21:25;14.88;;;4.13;;
56718;SDS011;42597;40.636;0.278;2022-10-16T07:23:54;8.57;;;3.80;;
56718;SDS011;42597;40.636;0.278;2022-10-16T07:26:25;13.70;;;4.30;;
56718;SDS011;42597;40.636;0.278;2022-10-16T07:28:52;12.40;;;4.05;;
56718;SDS011;42597;40.636;0.278;2022-10-16T07:31:18;6.05;;;3.35;;
56718;SDS011;42597;40.636;0.278;2022-10-16T07:33:45;8.57;;;3.97;;
56718;SDS011;42597;40.636;0.278;2022-10-16T07:36:12;8.30;;;4.10;;
56718;SDS011;42597;40.636;0.278;2022-10-16T07:38:39;10.02;;;4.13;;
56718;SDS011;42597;40.636;0.278;2022-10-16T07:41:09;13.38;;;4.35;;
56718;SDS011;42597;40.636;0.278;2022-10-16T07:43:37;9.95;;;4.38;;
56718;SDS011;42597;40.636;0.278;2022-10-16T07:46:03;7.63;;;4.10;;
56718;SDS011;42597;40.636;0.278;2022-10-16T07:48:32;7.40;;;4.07;;
56718;SDS011;42597;40.636;0.278;2022-10-16T07:51:03;8.65;;;3.78;;
56718;SDS011;42597;40.636;0.278;2022-10-16T07:53:30;8.13;;;4.28;;
56718;SDS011;42597;40.636;0.278;2022-10-16T07:55:57;14.07;;;4.72;;
56718;SDS011;42597;40.636;0.278;2022-10-16T07:58:24;15.27;;;4.78;;
56718;SDS011;42597;40.636;0.278;2022-10-16T08:00:50;7.03;;;3.40;;
56718;SDS011;42597;40.636;0.278;2022-10-16T08:03:15;10.00;;;3.55;;
56718;SDS011;42597;40.636;0.278;2022-10-16T08:05:41;10.23;;;3.35;;
56718;SDS011;42597;40.636;0.278;2022-10-16T08:08:10;7.82;;;3.55;;
56718;SDS011;42597;40.636;0.278;2022-10-16T08:10:38;7.60;;;3.97;;
56718;SDS011;42597;40.636;0.278;2022-10-16T08:13:03;10.32;;;3.17;;
56718;SDS011;42597;40.636;0.278;2022-10-16T08:15:29;16.55;;;3.70;;
56718;SDS011;42597;40.636;0.278;2022-10-16T08:17:55;8.32;;;3.97;;
56718;SDS011;42597;40.636;0.278;2022-10-16T08:20:23;7.60;;;3.33;;
56718;SDS011;42597;40.636;0.278;2022-10-16T08:22:49;9.98;;;3.50;;
56718;SDS011;42597;40.636;0.278;2022-10-16T08:25:14;5.80;;;3.05;;
56718;SDS011;42597;40.636;0.278;2022-10-16T08:27:40;7.47;;;3.10;;
56718;SDS011;42597;40.636;0.278;2022-10-16T08:30:06;9.13;;;3.88;;
56718;SDS011;42597;40.636;0.278;2022-10-16T08:32:32;8.45;;;3.58;;
56718;SDS011;42597;40.636;0.278;2022-10-16T08:34:57;13.18;;;3.45;;
56718;SDS011;42597;40.636;0.278;2022-10-16T08:37:23;16.88;;;3.70;;
56718;SDS011;42597;40.636;0.278;2022-10-16T08:39:49;5.75;;;3.70;;
56718;SDS011;42597;40.636;0.278;2022-10-16T08:47:43;7.45;;;3.45;;
56718;SDS011;42597;40.636;0.278;2022-10-16T08:50:14;6.55;;;3.15;;
56718;SDS011;42597;40.636;0.278;2022-10-16T08:52:46;9.25;;;3.38;;
56718;SDS011;42597;40.636;0.278;2022-10-16T08:57:52;8.93;;;3.25;;
56718;SDS011;42597;40.636;0.278;2022-10-16T09:00:18;9.15;;;3.17;;
56718;SDS011;42597;40.636;0.278;2022-10-16T09:02:49;13.43;;;5.03;;
56718;SDS011;42597;40.636;0.278;2022-10-16T09:16:17;16.23;;;8.05;;
56718;SDS011;42597;40.636;0.278;2022-10-16T09:21:31;15.07;;;5.80;;
56718;SDS011;42597;40.636;0.278;2022-10-16T09:24:12;12.20;;;5.82;;
56718;SDS011;42597;40.636;0.278;2022-10-16T09:26:39;12.65;;;7.05;;
56718;SDS011;42597;40.636;0.278;2022-10-16T09:29:05;16.83;;;7.50;;
56718;SDS011;42597;40.636;0.278;2022-10-16T09:31:31;16.23;;;7.20;;
56718;SDS011;42597;40.636;0.278;2022-10-16T09:33:59;12.35;;;6.30;;
56718;SDS011;42597;40.636;0.278;2022-10-16T09:36:35;14.63;;;7.07;;
56718;SDS011;42597;40.636;0.278;2022-10-16T09:39:08;15.00;;;7.07;;
56718;SDS011;42597;40.636;0.278;2022-10-16T09:41:37;8.57;;;5.38;;
56718;SDS011;42597;40.636;0.278;2022-10-16T09:44:39;6.47;;;4.45;;
56718;SDS011;42597;40.636;0.278;2022-10-16T09:47:05;13.27;;;7.25;;
56718;SDS011;42597;40.636;0.278;2022-10-16T09:49:38;7.20;;;6.47;;
56718;SDS011;42597;40.636;0.278;2022-10-16T09:52:04;16.13;;;7.05;;
56718;SDS011;42597;40.636;0.278;2022-10-16T09:54:48;11.00;;;6.20;;
56718;SDS011;42597;40.636;0.278;2022-10-16T09:57:14;7.80;;;4.65;;
56718;SDS011;42597;40.636;0.278;2022-10-16T09:59:47;11.05;;;7.35;;
56718;SDS011;42597;40.636;0.278;2022-10-16T10:02:15;14.30;;;6.55;;
56718;SDS011;42597;40.636;0.278;2022-10-16T10:04:46;10.30;;;6.55;;
56718;SDS011;42597;40.636;0.278;2022-10-16T10:07:35;10.50;;;5.32;;
56718;SDS011;42597;40.636;0.278;2022-10-16T10:10:20;11.27;;;6.10;;
56718;SDS011;42597;40.636;0.278;2022-10-16T10:12:48;10.00;;;5.95;;
56718;SDS011;42597;40.636;0.278;2022-10-16T10:15:14;10.95;;;6.40;;
56718;SDS011;42597;40.636;0.278;2022-10-16T10:20:35;13.27;;;6.80;;
56718;SDS011;42597;40.636;0.278;2022-10-16T10:23:23;16.38;;;6.20;;
56718;SDS011;42597;40.636;0.278;2022-10-16T10:32:47;16.90;;;6.45;;
56718;SDS011;42597;40.636;0.278;2022-10-16T10:35:01;11.52;;;5.65;;
56718;SDS011;42597;40.636;0.278;2022-10-16T10:40:32;9.68;;;5.45;;
56718;SDS011;42597;40.636;0.278;2022-10-16T10:54:38;10.95;;;5.70;;
56718;SDS011;42597;40.636;0.278;2022-10-16T10:57:12;7.40;;;4.55;;
56718;SDS011;42597;40.636;0.278;2022-10-16T11:08:08;12.38;;;6.97;;
56718;SDS011;42597;40.636;0.278;2022-10-16T11:10:53;10.80;;;6.10;;
56718;SDS011;42597;40.636;0.278;2022-10-16T11:16:15;15.00;;;5.50;;
56718;SDS011;42597;40.636;0.278;2022-10-16T11:27:40;12.32;;;5.72;;
56718;SDS011;42597;40.636;0.278;2022-10-16T11:30:16;11.57;;;5.65;;
56718;SDS011;42597;40.636;0.278;2022-10-16T11:36:04;12.70;;;4.78;;
56718;SDS011;42597;40.636;0.278;2022-10-16T11:41:32;13.88;;;5.30;;
56718;SDS011;42597;40.636;0.278;2022-10-16T11:46:46;11.10;;;5.53;;
56718;SDS011;42597;40.636;0.278;2022-10-16T11:49:21;13.55;;;6.15;;
56718;SDS011;42597;40.636;0.278;2022-10-16T11:51:56;8.45;;;4.53;;
56718;SDS011;42597;40.636;0.278;2022-10-16T11:54:37;11.65;;;5.00;;
56718;SDS011;42597;40.636;0.278;2022-10-16T11:57:10;13.02;;;4.68;;
56718;SDS011;42597;40.636;0.278;2022-10-16T11:59:46;14.27;;;4.38;;
56718;SDS011;42597;40.636;0.278;2022-10-16T12:04:43;9.07;;;4.13;;
56718;SDS011;42597;40.636;0.278;2022-10-16T12:07:16;9.80;;;4.70;;
56718;SDS011;42597;40.636;0.278;2022-10-16T12:09:47;8.98;;;4.80;;
56718;SDS011;42597;40.636;0.278;2022-10-16T12:12:37;10.10;;;4.88;;
56718;SDS011;42597;40.636;0.278;2022-10-16T12:17:54;16.00;;;7.22;;
56718;SDS011;42597;40.636;0.278;2022-10-16T12:20:27;11.70;;;4.40;;
56718;SDS011;42597;40.636;0.278;2022-10-16T12:22:56;13.05;;;5.45;;
56718;SDS011;42597;40.636;0.278;2022-10-16T12:25:39;13.57;;;7.50;;
56718;SDS011;42597;40.636;0.278;2022-10-16T12:30:56;13.55;;;5.15;;
56718;SDS011;42597;40.636;0.278;2022-10-16T12:33:35;11.30;;;4.55;;
56718;SDS011;42597;40.636;0.278;2022-10-16T12:36:12;7.45;;;4.03;;
56718;SDS011;42597;40.636;0.278;2022-10-16T12:38:50;11.63;;;5.03;;
56718;SDS011;42597;40.636;0.278;2022-10-16T12:41:28;13.35;;;4.82;;
56718;SDS011;42597;40.636;0.278;2022-10-16T12:43:55;10.90;;;5.50;;
56718;SDS011;42597;40.636;0.278;2022-10-16T12:46:23;10.65;;;5.53;;
56718;SDS011;42597;40.636;0.278;2022-10-16T12:51:54;8.70;;;5.15;;
56718;SDS011;42597;40.636;0.278;2022-10-16T12:54:21;10.20;;;4.90;;
56718;SDS011;42597;40.636;0.278;2022-10-16T13:11:36;12.82;;;5.53;;
56718;SDS011;42597;40.636;0.278;2022-10-16T13:28:22;9.98;;;5.50;;
56718;SDS011;42597;40.636;0.278;2022-10-16T13:30:54;16.38;;;6.57;;
56718;SDS011;42597;40.636;0.278;2022-10-16T13:33:36;10.60;;;4.47;;
56718;SDS011;42597;40.636;0.278;2022-10-16T13:36:04;11.43;;;5.82;;
56718;SDS011;42597;40.636;0.278;2022-10-16T13:38:34;11.57;;;5.28;;
56718;SDS011;42597;40.636;0.278;2022-10-16T13:43:32;17.48;;;5.20;;
56718;SDS011;42597;40.636;0.278;2022-10-16T13:46:12;9.65;;;5.40;;
56718;SDS011;42597;40.636;0.278;2022-10-16T13:48:38;11.98;;;5.85;;
56718;SDS011;42597;40.636;0.278;2022-10-16T13:51:12;12.52;;;5.78;;
56718;SDS011;42597;40.636;0.278;2022-10-16T13:53:42;12.30;;;6.65;;
56718;SDS011;42597;40.636;0.278;2022-10-16T13:56:13;11.70;;;5.35;;
56718;SDS011;42597;40.636;0.278;2022-10-16T13:58:40;14.88;;;6.03;;
56718;SDS011;42597;40.636;0.278;2022-10-16T14:01:26;14.45;;;6.03;;
56718;SDS011;42597;40.636;0.278;2022-10-16T14:03:59;21.80;;;6.45;;
56718;SDS011;42597;40.636;0.278;2022-10-16T14:06:28;25.30;;;15.65;;
56718;SDS011;42597;40.636;0.278;2022-10-16T14:09:39;17.52;;;9.60;;
56718;SDS011;42597;40.636;0.278;2022-10-16T14:11:49;18.05;;;11.55;;
56718;SDS011;42597;40.636;0.278;2022-10-16T14:14:19;15.40;;;5.75;;
56718;SDS011;42597;40.636;0.278;2022-10-16T14:16:46;12.30;;;5.65;;
56718;SDS011;42597;40.636;0.278;2022-10-16T14:19:22;16.40;;;10.25;;
56718;SDS011;42597;40.636;0.278;2022-10-16T14:21:51;19.30;;;10.63;;
56718;SDS011;42597;40.636;0.278;2022-10-16T14:26:57;17.23;;;6.40;;
56718;SDS011;42597;40.636;0.278;2022-10-16T14:29:24;16.92;;;6.22;;
56718;SDS011;42597;40.636;0.278;2022-10-16T14:32:20;16.15;;;4.93;;
56718;SDS011;42597;40.636;0.278;2022-10-16T14:34:52;7.78;;;4.72;;
56718;SDS011;42597;40.636;0.278;2022-10-16T14:39:52;15.30;;;5.40;;
56718;SDS011;42597;40.636;0.278;2022-10-16T14:42:18;15.43;;;5.57;;
56718;SDS011;42597;40.636;0.278;2022-10-16T14:44:48;14.15;;;5.97;;
56718;SDS011;42597;40.636;0.278;2022-10-16T14:47:18;11.52;;;4.97;;
56718;SDS011;42597;40.636;0.278;2022-10-16T14:49:50;10.25;;;4.55;;
56718;SDS011;42597;40.636;0.278;2022-10-16T14:52:17;11.18;;;5.00;;
56718;SDS011;42597;40.636;0.278;2022-10-16T14:54:43;9.20;;;5.32;;
56718;SDS011;42597;40.636;0.278;2022-10-16T14:57:17;10.13;;;5.07;;
56718;SDS011;42597;40.636;0.278;2022-10-16T14:59:48;9.13;;;4.88;;
56718;SDS011;42597;40.636;0.278;2022-10-16T15:04:55;10.23;;;4.88;;
56718;SDS011;42597;40.636;0.278;2022-10-16T15:07:21;13.88;;;4.88;;
56718;SDS011;42597;40.636;0.278;2022-10-16T15:09:46;12.65;;;5.00;;
56718;SDS011;42597;40.636;0.278;2022-10-16T15:12:12;11.38;;;5.60;;
56718;SDS011;42597;40.636;0.278;2022-10-16T15:14:38;10.55;;;5.10;;
56718;SDS011;42597;40.636;0.278;2022-10-16T15:17:03;7.88;;;3.67;;
56718;SDS011;42597;40.636;0.278;2022-10-16T15:19:29;18.17;;;5.75;;
56718;SDS011;42597;40.636;0.278;2022-10-16T15:21:55;16.70;;;6.15;;
56718;SDS011;42597;40.636;0.278;2022-10-16T15:24:21;9.13;;;3.63;;
56718;SDS011;42597;40.636;0.278;2022-10-16T15:26:47;11.45;;;4.90;;
56718;SDS011;42597;40.636;0.278;2022-10-16T15:29:14;11.68;;;4.65;;
56718;SDS011;42597;40.636;0.278;2022-10-16T15:31:40;13.45;;;4.47;;
56718;SDS011;42597;40.636;0.278;2022-10-16T15:34:08;14.20;;;5.47;;
56718;SDS011;42597;40.636;0.278;2022-10-16T15:36:35;8.05;;;4.13;;
56718;SDS011;42597;40.636;0.278;2022-10-16T15:39:06;8.88;;;4.22;;
56718;SDS011;42597;40.636;0.278;2022-10-16T15:41:40;9.90;;;5.25;;
56718;SDS011;42597;40.636;0.278;2022-10-16T15:44:06;9.70;;;4.78;;
56718;SDS011;42597;40.636;0.278;2022-10-16T15:46:32;12.27;;;5.50;;
56718;SDS011;42597;40.636;0.278;2022-10-16T15:48:59;8.80;;;4.68;;
56718;SDS011;42597;40.636;0.278;2022-10-16T15:51:26;12.48;;;4.72;;
56718;SDS011;42597;40.636;0.278;2022-10-16T15:53:55;13.15;;;4.32;;
56718;SDS011;42597;40.636;0.278;2022-10-16T15:56:21;10.13;;;4.75;;
56718;SDS011;42597;40.636;0.278;2022-10-16T15:58:50;9.98;;;4.75;;
56718;SDS011;42597;40.636;0.278;2022-10-16T16:01:17;8.25;;;4.07;;
56718;SDS011;42597;40.636;0.278;2022-10-16T16:03:42;10.48;;;4.80;;
56718;SDS011;42597;40.636;0.278;2022-10-16T16:06:10;12.00;;;4.75;;
56718;SDS011;42597;40.636;0.278;2022-10-16T16:08:37;11.60;;;4.93;;
56718;SDS011;42597;40.636;0.278;2022-10-16T16:13:36;10.35;;;5.18;;
56718;SDS011;42597;40.636;0.278;2022-10-16T16:16:10;9.52;;;4.57;;
56718;SDS011;42597;40.636;0.278;2022-10-16T16:18:37;9.07;;;5.00;;
56718;SDS011;42597;40.636;0.278;2022-10-16T16:21:05;7.13;;;4.28;;
56718;SDS011;42597;40.636;0.278;2022-10-16T16:23:31;13.88;;;5.32;;
56718;SDS011;42597;40.636;0.278;2022-10-16T16:28:32;7.72;;;4.32;;
56718;SDS011;42597;40.636;0.278;2022-10-16T16:30:58;6.68;;;4.50;;
56718;SDS011;42597;40.636;0.278;2022-10-16T16:33:24;14.13;;;7.55;;
56718;SDS011;42597;40.636;0.278;2022-10-16T16:35:50;13.35;;;5.00;;
56718;SDS011;42597;40.636;0.278;2022-10-16T16:38:15;12.63;;;6.53;;
56718;SDS011;42597;40.636;0.278;2022-10-16T16:40:41;9.52;;;4.05;;
56718;SDS011;42597;40.636;0.278;2022-10-16T16:43:07;12.88;;;6.32;;
56718;SDS011;42597;40.636;0.278;2022-10-16T16:45:36;8.63;;;5.40;;
56718;SDS011;42597;40.636;0.278;2022-10-16T16:48:01;11.32;;;5.25;;
56718;SDS011;42597;40.636;0.278;2022-10-16T16:50:27;13.25;;;6.15;;
56718;SDS011;42597;40.636;0.278;2022-10-16T16:52:53;12.13;;;5.88;;
56718;SDS011;42597;40.636;0.278;2022-10-16T16:55:18;11.43;;;7.32;;
56718;SDS011;42597;40.636;0.278;2022-10-16T16:57:44;14.13;;;5.90;;
56718;SDS011;42597;40.636;0.278;2022-10-16T17:02:38;10.68;;;5.68;;
56718;SDS011;42597;40.636;0.278;2022-10-16T17:05:08;10.38;;;5.43;;
56718;SDS011;42597;40.636;0.278;2022-10-16T17:07:34;8.05;;;5.50;;
56718;SDS011;42597;40.636;0.278;2022-10-16T17:10:00;10.57;;;5.47;;
56718;SDS011;42597;40.636;0.278;2022-10-16T17:12:28;8.20;;;5.78;;
56718;SDS011;42597;40.636;0.278;2022-10-16T17:14:54;10.25;;;6.90;;
56718;SDS011;42597;40.636;0.278;2022-10-16T17:17:20;16.48;;;7.00;;
56718;SDS011;42597;40.636;0.278;2022-10-16T17:19:45;13.52;;;8.13;;
56718;SDS011;42597;40.636;0.278;2022-10-16T17:22:11;13.25;;;7.00;;
56718;SDS011;42597;40.636;0.278;2022-10-16T17:24:37;9.82;;;5.93;;
56718;SDS011;42597;40.636;0.278;2022-10-16T17:27:03;11.43;;;5.97;;